sensor_id;sensor_type;location;lat;lon;timestamp;temperature;humidity
2763;DHT22;1389;51.490;7.338;2023-09-08T00:04:06;18.00;89.00
2763;DHT22;1389;51.490;7.338;2023-09-08T00:06:33;18.00;88.50
2763;DHT22;1389;51.490;7.338;2023-09-08T00:08:59;17.90;88.90
2763;DHT22;1389;51.490;7.338;2023-09-08T00:11:25;17.80;89.20
2763;DHT22;1389;51.490;7.338;2023-09-08T00:13:51;17.70;89.50
2763;DHT22;1389;51.490;7.338;2023-09-08T00:16:17;17.60;89.70
2763;DHT22;1389;51.490;7.338;2023-09-08T00:18:43;17.60;89.70
2763;DHT22;1389;51.490;7.338;2023-09-08T00:21:09;17.50;90.90
2763;DHT22;1389;51.490;7.338;2023-09-08T00:26:02;17.50;90.80
2763;DHT22;1389;51.490;7.338;2023-09-08T00:28:28;17.40;90.90
2763;DHT22;1389;51.490;7.338;2023-09-08T00:30:54;17.40;91.00
2763;DHT22;1389;51.490;7.338;2023-09-08T00:35:51;17.30;91.30
2763;DHT22;1389;51.490;7.338;2023-09-08T00:38:17;17.40;91.50
2763;DHT22;1389;51.490;7.338;2023-09-08T00:40:43;17.40;91.40
2763;DHT22;1389;51.490;7.338;2023-09-08T00:43:09;17.40;91.20
2763;DHT22;1389;51.490;7.338;2023-09-08T00:45:42;17.30;91.40
2763;DHT22;1389;51.490;7.338;2023-09-08T00:48:09;17.30;91.40
2763;DHT22;1389;51.490;7.338;2023-09-08T00:50:38;17.20;91.60
2763;DHT22;1389;51.490;7.338;2023-09-08T00:53:06;17.20;91.80
2763;DHT22;1389;51.490;7.338;2023-09-08T00:55:33;17.20;91.80
2763;DHT22;1389;51.490;7.338;2023-09-08T00:58:00;17.10;91.90
2763;DHT22;1389;51.490;7.338;2023-09-08T01:00:26;17.20;92.10
2763;DHT22;1389;51.490;7.338;2023-09-08T01:02:52;17.10;91.70
2763;DHT22;1389;51.490;7.338;2023-09-08T01:05:20;17.00;91.90
2763;DHT22;1389;51.490;7.338;2023-09-08T01:07:46;16.90;92.20
2763;DHT22;1389;51.490;7.338;2023-09-08T01:10:13;17.00;92.10
2763;DHT22;1389;51.490;7.338;2023-09-08T01:12:40;17.00;92.10
2763;DHT22;1389;51.490;7.338;2023-09-08T01:15:06;17.00;91.90
2763;DHT22;1389;51.490;7.338;2023-09-08T01:17:34;17.00;91.40
2763;DHT22;1389;51.490;7.338;2023-09-08T01:20:18;16.90;91.50
2763;DHT22;1389;51.490;7.338;2023-09-08T01:23:15;16.90;91.80
2763;DHT22;1389;51.490;7.338;2023-09-08T01:25:52;16.90;92.00
2763;DHT22;1389;51.490;7.338;2023-09-08T01:28:21;16.80;92.60
2763;DHT22;1389;51.490;7.338;2023-09-08T01:30:48;16.80;92.60
2763;DHT22;1389;51.490;7.338;2023-09-08T01:33:14;16.90;92.30
2763;DHT22;1389;51.490;7.338;2023-09-08T01:35:41;16.90;92.60
2763;DHT22;1389;51.490;7.338;2023-09-08T01:38:07;16.90;92.30
2763;DHT22;1389;51.490;7.338;2023-09-08T01:40:33;16.90;92.10
2763;DHT22;1389;51.490;7.338;2023-09-08T01:43:00;16.90;92.00
2763;DHT22;1389;51.490;7.338;2023-09-08T01:45:26;16.90;91.90
2763;DHT22;1389;51.490;7.338;2023-09-08T01:47:52;16.80;92.00
2763;DHT22;1389;51.490;7.338;2023-09-08T01:50:18;16.70;92.10
2763;DHT22;1389;51.490;7.338;2023-09-08T01:52:50;16.70;92.30
2763;DHT22;1389;51.490;7.338;2023-09-08T01:55:16;16.60;92.90
2763;DHT22;1389;51.490;7.338;2023-09-08T01:57:43;16.60;93.30
2763;DHT22;1389;51.490;7.338;2023-09-08T02:00:11;16.50;93.30
2763;DHT22;1389;51.490;7.338;2023-09-08T02:02:37;16.60;93.20
2763;DHT22;1389;51.490;7.338;2023-09-08T02:05:03;16.60;93.10
2763;DHT22;1389;51.490;7.338;2023-09-08T02:07:29;16.60;92.90
2763;DHT22;1389;51.490;7.338;2023-09-08T02:12:21;16.50;93.10
2763;DHT22;1389;51.490;7.338;2023-09-08T02:14:48;16.60;92.70
2763;DHT22;1389;51.490;7.338;2023-09-08T02:19:40;16.50;92.90
2763;DHT22;1389;51.490;7.338;2023-09-08T02:22:06;16.60;92.30
2763;DHT22;1389;51.490;7.338;2023-09-08T02:24:32;16.50;92.20
2763;DHT22;1389;51.490;7.338;2023-09-08T02:26:58;16.60;92.00
2763;DHT22;1389;51.490;7.338;2023-09-08T02:29:24;16.50;92.30
2763;DHT22;1389;51.490;7.338;2023-09-08T02:31:50;16.40;92.10
2763;DHT22;1389;51.490;7.338;2023-09-08T02:34:16;16.40;92.00
2763;DHT22;1389;51.490;7.338;2023-09-08T02:36:43;16.40;91.90
2763;DHT22;1389;51.490;7.338;2023-09-08T02:39:09;16.30;93.00
2763;DHT22;1389;51.490;7.338;2023-09-08T02:41:36;16.20;93.20
2763;DHT22;1389;51.490;7.338;2023-09-08T02:44:02;16.20;93.50
2763;DHT22;1389;51.490;7.338;2023-09-08T02:48:55;16.10;93.60
2763;DHT22;1389;51.490;7.338;2023-09-08T02:51:21;16.10;93.70
2763;DHT22;1389;51.490;7.338;2023-09-08T02:53:47;16.00;94.00
2763;DHT22;1389;51.490;7.338;2023-09-08T02:56:13;16.00;93.80
2763;DHT22;1389;51.490;7.338;2023-09-08T02:58:39;15.90;93.90
2763;DHT22;1389;51.490;7.338;2023-09-08T03:03:39;15.90;93.60
2763;DHT22;1389;51.490;7.338;2023-09-08T03:08:32;15.80;94.60
2763;DHT22;1389;51.490;7.338;2023-09-08T03:10:59;15.80;94.50
2763;DHT22;1389;51.490;7.338;2023-09-08T03:15:52;15.90;94.40
2763;DHT22;1389;51.490;7.338;2023-09-08T03:18:18;15.90;94.10
2763;DHT22;1389;51.490;7.338;2023-09-08T03:20:51;15.90;94.30
2763;DHT22;1389;51.490;7.338;2023-09-08T03:23:17;15.90;94.10
2763;DHT22;1389;51.490;7.338;2023-09-08T03:25:43;16.00;94.40
2763;DHT22;1389;51.490;7.338;2023-09-08T03:28:09;16.00;94.00
2763;DHT22;1389;51.490;7.338;2023-09-08T03:30:35;16.00;93.40
2763;DHT22;1389;51.490;7.338;2023-09-08T03:33:02;15.90;93.90
2763;DHT22;1389;51.490;7.338;2023-09-08T03:35:28;15.90;93.60
2763;DHT22;1389;51.490;7.338;2023-09-08T03:37:54;15.90;93.50
2763;DHT22;1389;51.490;7.338;2023-09-08T03:40:20;16.00;93.60
2763;DHT22;1389;51.490;7.338;2023-09-08T03:42:46;16.00;93.00
2763;DHT22;1389;51.490;7.338;2023-09-08T03:45:12;15.90;93.10
2763;DHT22;1389;51.490;7.338;2023-09-08T03:47:38;15.80;93.60
2763;DHT22;1389;51.490;7.338;2023-09-08T03:50:05;15.70;94.10
2763;DHT22;1389;51.490;7.338;2023-09-08T03:52:32;15.70;93.80
2763;DHT22;1389;51.490;7.338;2023-09-08T03:54:58;15.70;93.90
2763;DHT22;1389;51.490;7.338;2023-09-08T03:57:24;15.70;94.00
2763;DHT22;1389;51.490;7.338;2023-09-08T03:59:50;15.60;94.70
2763;DHT22;1389;51.490;7.338;2023-09-08T04:02:16;15.60;94.80
2763;DHT22;1389;51.490;7.338;2023-09-08T04:04:42;15.50;94.90
2763;DHT22;1389;51.490;7.338;2023-09-08T04:09:35;15.60;94.90
2763;DHT22;1389;51.490;7.338;2023-09-08T04:12:01;15.60;94.40
2763;DHT22;1389;51.490;7.338;2023-09-08T04:14:27;15.60;94.50
2763;DHT22;1389;51.490;7.338;2023-09-08T04:16:54;15.60;94.70
2763;DHT22;1389;51.490;7.338;2023-09-08T04:19:20;15.70;94.50
2763;DHT22;1389;51.490;7.338;2023-09-08T04:21:46;15.70;94.40
2763;DHT22;1389;51.490;7.338;2023-09-08T04:24:12;15.60;94.10
2763;DHT22;1389;51.490;7.338;2023-09-08T04:26:38;15.60;94.30
2763;DHT22;1389;51.490;7.338;2023-09-08T04:29:08;15.50;93.90
2763;DHT22;1389;51.490;7.338;2023-09-08T04:31:34;15.50;94.00
2763;DHT22;1389;51.490;7.338;2023-09-08T04:34:00;15.40;94.80
2763;DHT22;1389;51.490;7.338;2023-09-08T04:36:26;15.40;94.90
2763;DHT22;1389;51.490;7.338;2023-09-08T04:38:52;15.40;94.80
2763;DHT22;1389;51.490;7.338;2023-09-08T04:41:18;15.50;94.90
2763;DHT22;1389;51.490;7.338;2023-09-08T04:46:11;15.50;95.20
2763;DHT22;1389;51.490;7.338;2023-09-08T04:48:37;15.50;94.90
2763;DHT22;1389;51.490;7.338;2023-09-08T04:51:03;15.40;94.60
2763;DHT22;1389;51.490;7.338;2023-09-08T04:53:29;15.40;94.80
2763;DHT22;1389;51.490;7.338;2023-09-08T04:55:55;15.40;94.80
2763;DHT22;1389;51.490;7.338;2023-09-08T04:58:21;15.40;94.70
2763;DHT22;1389;51.490;7.338;2023-09-08T05:00:47;15.40;94.70
2763;DHT22;1389;51.490;7.338;2023-09-08T05:03:13;15.30;94.80
2763;DHT22;1389;51.490;7.338;2023-09-08T05:05:39;15.30;94.90
2763;DHT22;1389;51.490;7.338;2023-09-08T05:08:06;15.30;94.60
2763;DHT22;1389;51.490;7.338;2023-09-08T05:10:32;15.30;94.50
2763;DHT22;1389;51.490;7.338;2023-09-08T05:12:58;15.40;94.30
2763;DHT22;1389;51.490;7.338;2023-09-08T05:15:24;15.40;94.20
2763;DHT22;1389;51.490;7.338;2023-09-08T05:17:51;15.40;94.50
2763;DHT22;1389;51.490;7.338;2023-09-08T05:20:17;15.40;94.50
2763;DHT22;1389;51.490;7.338;2023-09-08T05:22:44;15.50;94.30
2763;DHT22;1389;51.490;7.338;2023-09-08T05:25:10;15.50;94.20
2763;DHT22;1389;51.490;7.338;2023-09-08T05:27:36;15.50;94.60
2763;DHT22;1389;51.490;7.338;2023-09-08T05:30:04;15.50;94.50
2763;DHT22;1389;51.490;7.338;2023-09-08T05:34:57;15.60;95.20
2763;DHT22;1389;51.490;7.338;2023-09-08T05:37:26;15.60;94.80
2763;DHT22;1389;51.490;7.338;2023-09-08T05:39:56;15.50;94.70
2763;DHT22;1389;51.490;7.338;2023-09-08T05:42:36;15.60;95.30
2763;DHT22;1389;51.490;7.338;2023-09-08T05:45:03;15.60;95.40
2763;DHT22;1389;51.490;7.338;2023-09-08T05:47:30;15.70;95.50
2763;DHT22;1389;51.490;7.338;2023-09-08T05:49:56;15.70;95.00
2763;DHT22;1389;51.490;7.338;2023-09-08T05:52:22;15.70;95.40
2763;DHT22;1389;51.490;7.338;2023-09-08T05:54:48;15.80;95.40
2763;DHT22;1389;51.490;7.338;2023-09-08T05:57:14;15.90;95.30
2763;DHT22;1389;51.490;7.338;2023-09-08T05:59:41;15.90;95.20
2763;DHT22;1389;51.490;7.338;2023-09-08T06:02:07;16.00;95.30
2763;DHT22;1389;51.490;7.338;2023-09-08T06:04:33;16.10;95.40
2763;DHT22;1389;51.490;7.338;2023-09-08T06:06:59;16.10;95.30
2763;DHT22;1389;51.490;7.338;2023-09-08T06:09:25;16.20;95.00
2763;DHT22;1389;51.490;7.338;2023-09-08T06:11:51;16.30;94.80
2763;DHT22;1389;51.490;7.338;2023-09-08T06:14:17;16.40;94.80
2763;DHT22;1389;51.490;7.338;2023-09-08T06:16:43;16.40;94.70
2763;DHT22;1389;51.490;7.338;2023-09-08T06:21:36;16.60;94.60
2763;DHT22;1389;51.490;7.338;2023-09-08T06:24:03;16.70;94.70
2763;DHT22;1389;51.490;7.338;2023-09-08T06:31:21;16.80;94.90
2763;DHT22;1389;51.490;7.338;2023-09-08T06:33:48;16.90;94.80
2763;DHT22;1389;51.490;7.338;2023-09-08T06:36:18;17.00;94.90
2763;DHT22;1389;51.490;7.338;2023-09-08T06:38:46;17.10;94.90
2763;DHT22;1389;51.490;7.338;2023-09-08T06:41:12;17.20;94.80
2763;DHT22;1389;51.490;7.338;2023-09-08T06:43:39;17.20;94.80
2763;DHT22;1389;51.490;7.338;2023-09-08T06:46:05;17.20;95.00
2763;DHT22;1389;51.490;7.338;2023-09-08T06:48:31;17.20;95.20
2763;DHT22;1389;51.490;7.338;2023-09-08T06:50:57;17.30;95.10
2763;DHT22;1389;51.490;7.338;2023-09-08T06:53:23;17.50;94.90
2763;DHT22;1389;51.490;7.338;2023-09-08T06:55:49;17.60;94.70
2763;DHT22;1389;51.490;7.338;2023-09-08T06:58:15;17.70;94.70
2763;DHT22;1389;51.490;7.338;2023-09-08T07:00:42;17.80;94.70
2763;DHT22;1389;51.490;7.338;2023-09-08T07:03:08;17.80;94.70
2763;DHT22;1389;51.490;7.338;2023-09-08T07:05:35;17.90;94.60
2763;DHT22;1389;51.490;7.338;2023-09-08T07:08:01;18.00;94.40
2763;DHT22;1389;51.490;7.338;2023-09-08T07:10:27;18.00;94.30
2763;DHT22;1389;51.490;7.338;2023-09-08T07:12:53;18.10;94.50
2763;DHT22;1389;51.490;7.338;2023-09-08T07:15:19;18.10;94.10
2763;DHT22;1389;51.490;7.338;2023-09-08T07:17:46;18.20;94.20
2763;DHT22;1389;51.490;7.338;2023-09-08T07:20:12;18.40;94.10
2763;DHT22;1389;51.490;7.338;2023-09-08T07:22:38;18.40;94.10
2763;DHT22;1389;51.490;7.338;2023-09-08T07:25:05;18.50;93.80
2763;DHT22;1389;51.490;7.338;2023-09-08T07:27:31;18.60;93.60
2763;DHT22;1389;51.490;7.338;2023-09-08T07:29:58;18.60;93.50
2763;DHT22;1389;51.490;7.338;2023-09-08T07:32:24;18.70;93.40
2763;DHT22;1389;51.490;7.338;2023-09-08T07:34:50;18.80;93.40
2763;DHT22;1389;51.490;7.338;2023-09-08T07:37:22;18.90;93.50
2763;DHT22;1389;51.490;7.338;2023-09-08T07:39:49;18.90;93.50
2763;DHT22;1389;51.490;7.338;2023-09-08T07:44:42;19.10;93.50
2763;DHT22;1389;51.490;7.338;2023-09-08T07:47:08;19.20;93.00
2763;DHT22;1389;51.490;7.338;2023-09-08T07:49:36;19.20;93.10
2763;DHT22;1389;51.490;7.338;2023-09-08T07:52:03;19.20;93.10
2763;DHT22;1389;51.490;7.338;2023-09-08T07:54:30;19.40;93.20
2763;DHT22;1389;51.490;7.338;2023-09-08T07:56:56;19.50;93.50
2763;DHT22;1389;51.490;7.338;2023-09-08T07:59:22;19.50;92.80
2763;DHT22;1389;51.490;7.338;2023-09-08T08:01:48;19.60;92.60
2763;DHT22;1389;51.490;7.338;2023-09-08T08:09:08;19.90;92.20
2763;DHT22;1389;51.490;7.338;2023-09-08T08:14:00;20.10;92.10
2763;DHT22;1389;51.490;7.338;2023-09-08T08:18:53;20.30;91.70
2763;DHT22;1389;51.490;7.338;2023-09-08T08:21:19;20.40;91.90
2763;DHT22;1389;51.490;7.338;2023-09-08T08:23:45;20.50;91.80
2763;DHT22;1389;51.490;7.338;2023-09-08T08:26:11;20.60;91.90
2763;DHT22;1389;51.490;7.338;2023-09-08T08:31:04;20.80;91.90
2763;DHT22;1389;51.490;7.338;2023-09-08T08:33:30;20.90;91.70
2763;DHT22;1389;51.490;7.338;2023-09-08T08:35:57;21.00;91.40
2763;DHT22;1389;51.490;7.338;2023-09-08T08:38:23;21.10;91.10
2763;DHT22;1389;51.490;7.338;2023-09-08T08:40:50;21.30;91.00
2763;DHT22;1389;51.490;7.338;2023-09-08T08:43:16;21.30;90.40
2763;DHT22;1389;51.490;7.338;2023-09-08T08:45:42;21.40;91.10
2763;DHT22;1389;51.490;7.338;2023-09-08T08:48:09;21.40;89.70
2763;DHT22;1389;51.490;7.338;2023-09-08T08:50:37;21.60;89.30
2763;DHT22;1389;51.490;7.338;2023-09-08T08:53:04;21.90;88.90
2763;DHT22;1389;51.490;7.338;2023-09-08T08:55:31;21.90;87.10
2763;DHT22;1389;51.490;7.338;2023-09-08T08:58:04;22.10;88.20
2763;DHT22;1389;51.490;7.338;2023-09-08T09:00:34;22.30;88.40
2763;DHT22;1389;51.490;7.338;2023-09-08T09:03:02;22.30;88.30
2763;DHT22;1389;51.490;7.338;2023-09-08T09:05:30;22.30;87.80
2763;DHT22;1389;51.490;7.338;2023-09-08T09:07:58;22.40;88.40
2763;DHT22;1389;51.490;7.338;2023-09-08T09:10:24;22.50;87.40
2763;DHT22;1389;51.490;7.338;2023-09-08T09:12:51;22.50;87.50
2763;DHT22;1389;51.490;7.338;2023-09-08T09:15:28;22.70;87.40
2763;DHT22;1389;51.490;7.338;2023-09-08T09:18:08;22.90;86.90
2763;DHT22;1389;51.490;7.338;2023-09-08T09:20:34;23.00;86.70
2763;DHT22;1389;51.490;7.338;2023-09-08T09:23:00;23.10;86.30
2763;DHT22;1389;51.490;7.338;2023-09-08T09:25:31;23.20;84.00
2763;DHT22;1389;51.490;7.338;2023-09-08T09:27:59;23.30;85.10
2763;DHT22;1389;51.490;7.338;2023-09-08T09:30:26;23.30;85.50
2763;DHT22;1389;51.490;7.338;2023-09-08T09:33:02;23.40;83.70
2763;DHT22;1389;51.490;7.338;2023-09-08T09:35:42;23.60;84.00
2763;DHT22;1389;51.490;7.338;2023-09-08T09:38:08;23.60;83.30
2763;DHT22;1389;51.490;7.338;2023-09-08T09:40:35;23.80;82.90
2763;DHT22;1389;51.490;7.338;2023-09-08T09:43:01;23.90;83.10
2763;DHT22;1389;51.490;7.338;2023-09-08T09:45:29;23.90;83.20
2763;DHT22;1389;51.490;7.338;2023-09-08T09:47:56;23.90;82.70
2763;DHT22;1389;51.490;7.338;2023-09-08T09:50:39;23.90;82.60
2763;DHT22;1389;51.490;7.338;2023-09-08T09:53:13;24.10;82.60
2763;DHT22;1389;51.490;7.338;2023-09-08T09:55:41;24.10;82.50
2763;DHT22;1389;51.490;7.338;2023-09-08T09:58:08;24.10;81.00
2763;DHT22;1389;51.490;7.338;2023-09-08T10:00:37;24.20;80.70
2763;DHT22;1389;51.490;7.338;2023-09-08T10:03:04;24.20;80.30
2763;DHT22;1389;51.490;7.338;2023-09-08T10:05:30;24.40;80.70
2763;DHT22;1389;51.490;7.338;2023-09-08T10:07:56;24.50;80.70
2763;DHT22;1389;51.490;7.338;2023-09-08T10:10:23;24.50;80.60
2763;DHT22;1389;51.490;7.338;2023-09-08T10:12:55;24.90;78.20
2763;DHT22;1389;51.490;7.338;2023-09-08T10:15:24;24.90;78.30
2763;DHT22;1389;51.490;7.338;2023-09-08T10:17:54;24.90;78.40
2763;DHT22;1389;51.490;7.338;2023-09-08T10:20:25;24.80;78.90
2763;DHT22;1389;51.490;7.338;2023-09-08T10:23:06;24.80;80.50
2763;DHT22;1389;51.490;7.338;2023-09-08T10:25:39;24.80;80.40
2763;DHT22;1389;51.490;7.338;2023-09-08T10:28:08;24.90;80.30
2763;DHT22;1389;51.490;7.338;2023-09-08T10:30:34;24.90;80.50
2763;DHT22;1389;51.490;7.338;2023-09-08T10:33:01;25.00;78.60
2763;DHT22;1389;51.490;7.338;2023-09-08T10:35:29;25.10;79.60
2763;DHT22;1389;51.490;7.338;2023-09-08T10:40:50;25.10;78.70
2763;DHT22;1389;51.490;7.338;2023-09-08T10:43:18;25.20;78.00
2763;DHT22;1389;51.490;7.338;2023-09-08T10:45:46;25.30;75.30
2763;DHT22;1389;51.490;7.338;2023-09-08T10:48:13;25.30;76.30
2763;DHT22;1389;51.490;7.338;2023-09-08T10:50:41;25.40;77.00
2763;DHT22;1389;51.490;7.338;2023-09-08T10:55:41;25.60;76.80
2763;DHT22;1389;51.490;7.338;2023-09-08T10:58:10;25.60;77.60
2763;DHT22;1389;51.490;7.338;2023-09-08T11:00:44;25.60;78.10
2763;DHT22;1389;51.490;7.338;2023-09-08T11:03:11;25.60;77.00
2763;DHT22;1389;51.490;7.338;2023-09-08T11:05:37;25.50;76.40
2763;DHT22;1389;51.490;7.338;2023-09-08T11:08:03;25.60;77.70
2763;DHT22;1389;51.490;7.338;2023-09-08T11:10:30;25.60;77.90
2763;DHT22;1389;51.490;7.338;2023-09-08T11:12:58;25.60;76.60
2763;DHT22;1389;51.490;7.338;2023-09-08T11:15:25;25.60;76.50
2763;DHT22;1389;51.490;7.338;2023-09-08T11:17:51;25.70;74.60
2763;DHT22;1389;51.490;7.338;2023-09-08T11:20:26;25.80;74.10
2763;DHT22;1389;51.490;7.338;2023-09-08T11:22:53;25.70;75.60
2763;DHT22;1389;51.490;7.338;2023-09-08T11:25:20;25.60;73.40
2763;DHT22;1389;51.490;7.338;2023-09-08T11:27:46;25.50;74.00
2763;DHT22;1389;51.490;7.338;2023-09-08T11:30:16;25.50;70.40
2763;DHT22;1389;51.490;7.338;2023-09-08T11:32:42;25.60;72.10
2763;DHT22;1389;51.490;7.338;2023-09-08T11:35:09;25.90;70.90
2763;DHT22;1389;51.490;7.338;2023-09-08T11:37:40;26.10;71.60
2763;DHT22;1389;51.490;7.338;2023-09-08T11:40:08;26.20;72.00
2763;DHT22;1389;51.490;7.338;2023-09-08T11:42:42;26.20;71.90
2763;DHT22;1389;51.490;7.338;2023-09-08T11:45:16;26.10;72.20
2763;DHT22;1389;51.490;7.338;2023-09-08T11:47:51;26.10;71.70
2763;DHT22;1389;51.490;7.338;2023-09-08T11:50:19;26.20;68.20
2763;DHT22;1389;51.490;7.338;2023-09-08T11:52:50;26.20;70.40
2763;DHT22;1389;51.490;7.338;2023-09-08T11:55:18;26.20;71.90
2763;DHT22;1389;51.490;7.338;2023-09-08T11:57:46;26.20;70.30
2763;DHT22;1389;51.490;7.338;2023-09-08T12:00:18;26.20;72.10
2763;DHT22;1389;51.490;7.338;2023-09-08T12:02:45;26.20;71.30
2763;DHT22;1389;51.490;7.338;2023-09-08T12:05:25;26.40;69.30
2763;DHT22;1389;51.490;7.338;2023-09-08T12:07:53;26.50;65.20
2763;DHT22;1389;51.490;7.338;2023-09-08T12:10:20;26.50;65.10
2763;DHT22;1389;51.490;7.338;2023-09-08T12:12:52;26.50;69.70
2763;DHT22;1389;51.490;7.338;2023-09-08T12:15:30;26.40;70.40
2763;DHT22;1389;51.490;7.338;2023-09-08T12:18:04;26.40;70.20
2763;DHT22;1389;51.490;7.338;2023-09-08T12:20:31;26.40;70.80
2763;DHT22;1389;51.490;7.338;2023-09-08T12:23:00;26.60;69.00
2763;DHT22;1389;51.490;7.338;2023-09-08T12:25:27;26.60;70.70
2763;DHT22;1389;51.490;7.338;2023-09-08T12:27:54;26.60;69.10
2763;DHT22;1389;51.490;7.338;2023-09-08T12:30:22;26.60;70.20
2763;DHT22;1389;51.490;7.338;2023-09-08T12:32:57;26.80;71.00
2763;DHT22;1389;51.490;7.338;2023-09-08T12:35:25;26.80;71.30
2763;DHT22;1389;51.490;7.338;2023-09-08T12:38:05;26.80;68.20
2763;DHT22;1389;51.490;7.338;2023-09-08T12:40:35;27.00;67.40
2763;DHT22;1389;51.490;7.338;2023-09-08T12:43:02;27.10;68.70
2763;DHT22;1389;51.490;7.338;2023-09-08T12:45:29;27.00;67.50
2763;DHT22;1389;51.490;7.338;2023-09-08T12:48:01;27.10;66.70
2763;DHT22;1389;51.490;7.338;2023-09-08T12:50:30;27.20;65.70
2763;DHT22;1389;51.490;7.338;2023-09-08T12:52:56;27.30;65.00
2763;DHT22;1389;51.490;7.338;2023-09-08T12:55:23;27.50;64.00
2763;DHT22;1389;51.490;7.338;2023-09-08T12:57:50;27.40;66.70
2763;DHT22;1389;51.490;7.338;2023-09-08T13:00:21;27.50;65.90
2763;DHT22;1389;51.490;7.338;2023-09-08T13:02:49;27.50;67.00
2763;DHT22;1389;51.490;7.338;2023-09-08T13:05:15;27.40;66.50
2763;DHT22;1389;51.490;7.338;2023-09-08T13:07:41;27.40;65.70
2763;DHT22;1389;51.490;7.338;2023-09-08T13:10:07;27.30;69.80
2763;DHT22;1389;51.490;7.338;2023-09-08T13:15:56;27.20;65.40
2763;DHT22;1389;51.490;7.338;2023-09-08T13:18:22;27.40;63.90
2763;DHT22;1389;51.490;7.338;2023-09-08T13:20:51;27.60;63.30
2763;DHT22;1389;51.490;7.338;2023-09-08T13:23:17;27.50;63.20
2763;DHT22;1389;51.490;7.338;2023-09-08T13:25:43;27.60;64.90
2763;DHT22;1389;51.490;7.338;2023-09-08T13:28:10;27.50;67.00
2763;DHT22;1389;51.490;7.338;2023-09-08T13:33:03;27.70;63.30
2763;DHT22;1389;51.490;7.338;2023-09-08T13:35:29;27.80;65.40
2763;DHT22;1389;51.490;7.338;2023-09-08T13:40:21;27.80;65.50
2763;DHT22;1389;51.490;7.338;2023-09-08T13:42:47;27.80;63.30
2763;DHT22;1389;51.490;7.338;2023-09-08T13:45:13;27.70;66.20
2763;DHT22;1389;51.490;7.338;2023-09-08T13:47:39;27.70;65.10
2763;DHT22;1389;51.490;7.338;2023-09-08T13:50:06;27.70;65.20
2763;DHT22;1389;51.490;7.338;2023-09-08T13:52:32;27.80;62.50
2763;DHT22;1389;51.490;7.338;2023-09-08T13:57:25;28.20;61.30
2763;DHT22;1389;51.490;7.338;2023-09-08T13:59:52;28.20;62.20
2763;DHT22;1389;51.490;7.338;2023-09-08T14:02:20;28.10;63.10
2763;DHT22;1389;51.490;7.338;2023-09-08T14:04:46;28.10;62.70
2763;DHT22;1389;51.490;7.338;2023-09-08T14:07:12;28.00;61.90
2763;DHT22;1389;51.490;7.338;2023-09-08T14:12:06;27.80;64.80
2763;DHT22;1389;51.490;7.338;2023-09-08T14:14:32;27.80;64.80
2763;DHT22;1389;51.490;7.338;2023-09-08T14:16:58;27.70;64.50
2763;DHT22;1389;51.490;7.338;2023-09-08T14:19:25;27.70;63.40
2763;DHT22;1389;51.490;7.338;2023-09-08T14:26:43;27.70;65.00
2763;DHT22;1389;51.490;7.338;2023-09-08T14:29:10;27.60;64.20
2763;DHT22;1389;51.490;7.338;2023-09-08T14:31:36;27.70;64.60
2763;DHT22;1389;51.490;7.338;2023-09-08T14:34:02;27.90;60.50
2763;DHT22;1389;51.490;7.338;2023-09-08T14:36:29;27.90;61.90
2763;DHT22;1389;51.490;7.338;2023-09-08T14:41:21;28.00;61.10
2763;DHT22;1389;51.490;7.338;2023-09-08T14:43:47;28.00;62.60
2763;DHT22;1389;51.490;7.338;2023-09-08T14:46:13;28.00;60.80
2763;DHT22;1389;51.490;7.338;2023-09-08T14:48:40;28.00;61.40
2763;DHT22;1389;51.490;7.338;2023-09-08T14:51:06;27.90;62.90
2763;DHT22;1389;51.490;7.338;2023-09-08T14:58:26;27.70;63.40
2763;DHT22;1389;51.490;7.338;2023-09-08T15:00:58;27.70;64.00
2763;DHT22;1389;51.490;7.338;2023-09-08T15:08:22;27.70;62.30
2763;DHT22;1389;51.490;7.338;2023-09-08T15:10:48;27.60;64.50
2763;DHT22;1389;51.490;7.338;2023-09-08T15:13:14;27.70;65.50
2763;DHT22;1389;51.490;7.338;2023-09-08T15:18:06;27.80;65.70
2763;DHT22;1389;51.490;7.338;2023-09-08T15:20:33;27.70;64.00
2763;DHT22;1389;51.490;7.338;2023-09-08T15:22:59;27.70;64.30
2763;DHT22;1389;51.490;7.338;2023-09-08T15:25:25;27.70;64.10
2763;DHT22;1389;51.490;7.338;2023-09-08T15:27:51;27.80;64.20
2763;DHT22;1389;51.490;7.338;2023-09-08T15:30:21;27.80;63.90
2763;DHT22;1389;51.490;7.338;2023-09-08T15:32:47;27.80;64.40
2763;DHT22;1389;51.490;7.338;2023-09-08T15:35:14;27.90;65.20
2763;DHT22;1389;51.490;7.338;2023-09-08T15:37:40;27.90;65.90
2763;DHT22;1389;51.490;7.338;2023-09-08T15:40:06;27.90;65.40
2763;DHT22;1389;51.490;7.338;2023-09-08T15:42:40;27.90;65.00
2763;DHT22;1389;51.490;7.338;2023-09-08T15:45:07;27.90;65.00
2763;DHT22;1389;51.490;7.338;2023-09-08T15:47:33;27.90;64.90
2763;DHT22;1389;51.490;7.338;2023-09-08T15:52:27;28.00;63.30
2763;DHT22;1389;51.490;7.338;2023-09-08T15:54:53;28.10;63.00
2763;DHT22;1389;51.490;7.338;2023-09-08T15:57:19;28.30;62.80
2763;DHT22;1389;51.490;7.338;2023-09-08T15:59:45;28.70;63.40
2763;DHT22;1389;51.490;7.338;2023-09-08T16:02:11;29.80;61.30
2763;DHT22;1389;51.490;7.338;2023-09-08T16:07:03;30.50;60.00
2763;DHT22;1389;51.490;7.338;2023-09-08T16:09:30;30.80;58.40
2763;DHT22;1389;51.490;7.338;2023-09-08T16:16:49;31.80;54.80
2763;DHT22;1389;51.490;7.338;2023-09-08T16:19:15;32.00;54.90
2763;DHT22;1389;51.490;7.338;2023-09-08T16:24:09;32.10;53.00
2763;DHT22;1389;51.490;7.338;2023-09-08T16:26:35;32.10;52.80
2763;DHT22;1389;51.490;7.338;2023-09-08T16:29:01;32.20;53.40
2763;DHT22;1389;51.490;7.338;2023-09-08T16:31:27;32.30;53.50
2763;DHT22;1389;51.490;7.338;2023-09-08T16:33:54;32.30;53.00
2763;DHT22;1389;51.490;7.338;2023-09-08T16:36:20;32.30;53.10
2763;DHT22;1389;51.490;7.338;2023-09-08T16:38:46;32.20;53.60
2763;DHT22;1389;51.490;7.338;2023-09-08T16:48:31;31.80;54.00
2763;DHT22;1389;51.490;7.338;2023-09-08T16:53:23;31.60;54.10
2763;DHT22;1389;51.490;7.338;2023-09-08T16:55:49;31.50;54.20
2763;DHT22;1389;51.490;7.338;2023-09-08T17:00:42;31.50;56.40
2763;DHT22;1389;51.490;7.338;2023-09-08T17:03:08;31.50;56.40
2763;DHT22;1389;51.490;7.338;2023-09-08T17:08:01;31.10;56.50
2763;DHT22;1389;51.490;7.338;2023-09-08T17:10:27;30.60;58.20
2763;DHT22;1389;51.490;7.338;2023-09-08T17:12:53;29.70;59.60
2763;DHT22;1389;51.490;7.338;2023-09-08T17:15:19;29.50;60.50
2763;DHT22;1389;51.490;7.338;2023-09-08T17:20:12;28.60;61.00
2763;DHT22;1389;51.490;7.338;2023-09-08T17:25:05;27.70;64.10
2763;DHT22;1389;51.490;7.338;2023-09-08T17:27:31;27.70;64.10
2763;DHT22;1389;51.490;7.338;2023-09-08T17:29:57;27.50;64.30
2763;DHT22;1389;51.490;7.338;2023-09-08T17:32:23;27.30;64.80
2763;DHT22;1389;51.490;7.338;2023-09-08T17:34:49;27.00;65.10
2763;DHT22;1389;51.490;7.338;2023-09-08T17:37:15;26.80;65.80
2763;DHT22;1389;51.490;7.338;2023-09-08T17:42:07;26.50;66.50
2763;DHT22;1389;51.490;7.338;2023-09-08T17:49:31;26.20;68.10
2763;DHT22;1389;51.490;7.338;2023-09-08T17:52:01;26.00;69.40
2763;DHT22;1389;51.490;7.338;2023-09-08T17:54:27;26.00;69.40
2763;DHT22;1389;51.490;7.338;2023-09-08T17:56:53;25.90;69.90
2763;DHT22;1389;51.490;7.338;2023-09-08T17:59:19;25.70;71.20
2763;DHT22;1389;51.490;7.338;2023-09-08T18:01:45;25.60;71.60
2763;DHT22;1389;51.490;7.338;2023-09-08T18:04:11;25.40;71.70
2763;DHT22;1389;51.490;7.338;2023-09-08T18:06:37;25.30;72.10
2763;DHT22;1389;51.490;7.338;2023-09-08T18:11:29;25.10;73.00
2763;DHT22;1389;51.490;7.338;2023-09-08T18:13:55;24.90;72.90